VOE98O LFBT-LFPO
Flight info
| Callsign | VOE98O |
|---|---|
| Flight time | N/A |
| Altitude | 28000 |
| Route | USAKU DCT AGN DCT DIBAG DCT TUDRA DCT BEVOL UT158 AMB |
| Aircraft | A319/M-SDE3FGHIRWY/LB1 |
Departure
| Time | 2026-05-07 14:36 |
|---|---|
| Airport | Tarbes-Lourdes-Pyrénées Airport (LFBT) |
Arrival
| Time | N/A |
|---|---|
| Airport | Paris-Orly Airport (LFPO) |
| Time | Latitude | Longitude | Altitude | Speed | Heading |
|---|---|---|---|---|---|
| 2026-05-07 14:21 | 43.18478 | 0.00312 | 1216 ft | 0 kts | 37° |
| 2026-05-07 14:22 | 43.18469 | 0.00302 | 1217 ft | 4 kts | 37° |
| 2026-05-07 14:23 | 43.18447 | 0.00280 | 1214 ft | 4 kts | 37° |
| 2026-05-07 14:23 | 43.18430 | 0.00262 | 1215 ft | 4 kts | 25° |
| 2026-05-07 14:23 | 43.18414 | 0.00259 | 1216 ft | 4 kts | 296° |
| 2026-05-07 14:23 | 43.18408 | 0.00290 | 1215 ft | 2 kts | 281° |
| 2026-05-07 14:24 | 43.18408 | 0.00292 | 1215 ft | 0 kts | 281° |
| 2026-05-07 14:26 | 43.18409 | 0.00283 | 1215 ft | 3 kts | 281° |
| 2026-05-07 14:27 | 43.18415 | 0.00239 | 1216 ft | 7 kts | 281° |
| 2026-05-07 14:27 | 43.18431 | 0.00164 | 1216 ft | 8 kts | 288° |
| 2026-05-07 14:27 | 43.18408 | 0.00107 | 1219 ft | 7 kts | 211° |
| 2026-05-07 14:27 | 43.18363 | 0.00075 | 1218 ft | 8 kts | 208° |
| 2026-05-07 14:28 | 43.18309 | 0.00034 | 1220 ft | 10 kts | 209° |
| 2026-05-07 14:28 | 43.18246 | -0.00015 | 1220 ft | 11 kts | 209° |
| 2026-05-07 14:28 | 43.18174 | -0.00069 | 1207 ft | 13 kts | 209° |
| 2026-05-07 14:28 | 43.18093 | -0.00131 | 1210 ft | 14 kts | 209° |
| 2026-05-07 14:29 | 43.18005 | -0.00198 | 1213 ft | 15 kts | 209° |
| 2026-05-07 14:29 | 43.17906 | -0.00274 | 1216 ft | 17 kts | 209° |
| 2026-05-07 14:29 | 43.17796 | -0.00357 | 1219 ft | 19 kts | 209° |
| 2026-05-07 14:29 | 43.17678 | -0.00447 | 1222 ft | 20 kts | 208° |
| 2026-05-07 14:30 | 43.17546 | -0.00530 | 1226 ft | 21 kts | 202° |
| 2026-05-07 14:30 | 43.17419 | -0.00595 | 1231 ft | 18 kts | 200° |
| 2026-05-07 14:30 | 43.17308 | -0.00650 | 1240 ft | 16 kts | 200° |
| 2026-05-07 14:30 | 43.17214 | -0.00699 | 1240 ft | 13 kts | 200° |
| 2026-05-07 14:31 | 43.17129 | -0.00741 | 1252 ft | 13 kts | 200° |
| 2026-05-07 14:31 | 43.17040 | -0.00787 | 1250 ft | 14 kts | 200° |
| 2026-05-07 14:31 | 43.16944 | -0.00835 | 1253 ft | 15 kts | 200° |
| 2026-05-07 14:31 | 43.16843 | -0.00887 | 1262 ft | 16 kts | 200° |
| 2026-05-07 14:32 | 43.16733 | -0.00943 | 1260 ft | 17 kts | 202° |
| 2026-05-07 14:32 | 43.16646 | -0.01025 | 1262 ft | 13 kts | 222° |
| 2026-05-07 14:32 | 43.16589 | -0.01099 | 1269 ft | 8 kts | 234° |
| 2026-05-07 14:32 | 43.16586 | -0.01107 | 1264 ft | 0 kts | 245° |
| 2026-05-07 14:34 | 43.16582 | -0.01120 | 1264 ft | 3 kts | 250° |
| 2026-05-07 14:35 | 43.16587 | -0.01190 | 1265 ft | 11 kts | 289° |
| 2026-05-07 14:35 | 43.16643 | -0.01248 | 1264 ft | 12 kts | 4° |
| 2026-05-07 14:35 | 43.16712 | -0.01217 | 1260 ft | 10 kts | 20° |
| 2026-05-07 14:35 | 43.16798 | -0.01174 | 1256 ft | 16 kts | 20° |
| 2026-05-07 14:36 | 43.17093 | -0.01024 | 1248 ft | 85 kts | 20° |
| 2026-05-07 14:36 | 43.17880 | -0.00625 | 1220 ft | 151 kts | 20° |
| 2026-05-07 14:36 | 43.18896 | -0.00115 | 1785 ft | 155 kts | 21° |
| 2026-05-07 14:36 | 43.19923 | 0.00406 | 2444 ft | 157 kts | 22° |
| 2026-05-07 14:37 | 43.20969 | 0.00939 | 3041 ft | 165 kts | 23° |
| 2026-05-07 14:37 | 43.23421 | 0.02202 | 3808 ft | 214 kts | 23° |
| 2026-05-07 14:37 | 43.24873 | 0.02959 | 4296 ft | 238 kts | 25° |
| 2026-05-07 14:38 | 43.26481 | 0.03911 | 4892 ft | 260 kts | 26° |
| 2026-05-07 14:38 | 43.28141 | 0.04958 | 5768 ft | 268 kts | 26° |
| 2026-05-07 14:38 | 43.29856 | 0.06055 | 6732 ft | 274 kts | 25° |
| 2026-05-07 14:38 | 43.31590 | 0.07166 | 7646 ft | 280 kts | 25° |
| 2026-05-07 14:39 | 43.33389 | 0.08315 | 8555 ft | 287 kts | 25° |
| 2026-05-07 14:39 | 43.35210 | 0.09473 | 9478 ft | 293 kts | 24° |
| 2026-05-07 14:39 | 43.37092 | 0.10664 | 10297 ft | 301 kts | 24° |
| 2026-05-07 14:39 | 43.39040 | 0.11893 | 10760 ft | 323 kts | 24° |
| 2026-05-07 14:40 | 43.41155 | 0.13224 | 11233 ft | 341 kts | 24° |
| 2026-05-07 14:40 | 43.43349 | 0.14606 | 11986 ft | 349 kts | 24° |
| 2026-05-07 14:40 | 43.45549 | 0.15998 | 12838 ft | 353 kts | 24° |
| 2026-05-07 14:40 | 43.47800 | 0.17422 | 13673 ft | 359 kts | 24° |
| 2026-05-07 14:41 | 43.50093 | 0.18875 | 14432 ft | 363 kts | 25° |
| 2026-05-07 14:41 | 43.52246 | 0.20678 | 15149 ft | 368 kts | 37° |
| 2026-05-07 14:41 | 43.54128 | 0.23109 | 15892 ft | 371 kts | 50° |